CYBX

Lourdes de Blanc Sablon Airport

Lourdes-De-Blanc-Sablon, Quebec, Canada
METAR CYBX 240700Z 36005KT 15SM BKN190 M03/M06 A2996 RMK CI7 SLP150
Observed Flight Rules
May-24 @ 07:00 UTC (an hour ago) Visual Flight Rules
Wind Visibility Clouds
360° at 5 knots 15 miles
  • Broken at 19,000' AGL
Temperatures Readings
Current -3°C / 27°F
Dewpoint -6°C / 21°F
Humidity 80%
Altimeter 29.96" Hg
Pressure 1015 hPa
Elevation 35
METAR CYBX 240700Z 36005KT 15SM BKN190 M03/M06 A2996 RMK CI7 SLP150
Observed Flight Rules
May-24 @ 07:00 UTC
(an hour ago)
VFR
Wind Visibility
360° at 5 knots 15 miles
Clouds
  • Broken at 19,000' AGL
Temperature Dewpoint
-3°C / 27°F -6°C / 21°F
Humidity Altimeter Pressure
80% 29.96" Hg 1015 hPa